createdAt,value
2019-05-01T00:00:47.626Z,9.13
2019-05-01T00:03:20.635Z,15.10
2019-05-01T00:05:54.220Z,8.33
2019-05-01T00:08:26.546Z,7.33
2019-05-01T00:10:58.492Z,9.98
2019-05-01T00:13:32.786Z,9.98
2019-05-01T00:16:04.136Z,11.08
2019-05-01T00:18:35.674Z,9.98
2019-05-01T00:21:07.305Z,10.40
2019-05-01T00:23:38.873Z,17.60
2019-05-01T00:26:10.908Z,10.20
2019-05-01T00:28:42.568Z,9.38
2019-05-01T00:31:13.926Z,7.03
2019-05-01T00:33:45.810Z,11.95
2019-05-01T00:36:17.368Z,7.25
2019-05-01T00:38:48.678Z,11.40
2019-05-01T00:41:19.635Z,7.33
2019-05-01T00:43:51.146Z,10.18
2019-05-01T00:46:22.535Z,11.18
2019-05-01T00:48:54.165Z,8.88
2019-05-01T00:51:25.668Z,14.60
2019-05-01T00:53:57.224Z,7.15
2019-05-01T00:56:29.991Z,14.40
2019-05-01T00:59:03.080Z,9.20
2019-05-01T01:01:34.309Z,9.50
2019-05-01T01:04:06.131Z,9.80
2019-05-01T01:06:38.283Z,10.70
2019-05-01T01:09:10.494Z,6.72
2019-05-01T01:11:41.869Z,9.78
2019-05-01T01:14:13.012Z,7.03
2019-05-01T01:16:44.559Z,7.33
2019-05-01T01:19:15.858Z,9.20
2019-05-01T01:21:47.731Z,9.10
2019-05-01T01:24:18.930Z,10.98
2019-05-01T01:26:50.095Z,6.35
2019-05-01T01:29:21.388Z,8.10
2019-05-01T01:31:52.938Z,7.15
2019-05-01T01:34:24.552Z,10.63
2019-05-01T01:36:55.913Z,10.98
2019-05-01T01:39:28.273Z,9.40
2019-05-01T01:41:59.679Z,7.47
2019-05-01T01:44:32.309Z,8.68
2019-05-01T01:47:03.793Z,6.25
2019-05-01T01:49:35.693Z,7.97
2019-05-01T01:52:07.508Z,13.30
2019-05-01T01:54:38.796Z,10.25
2019-05-01T01:57:10.537Z,6.67
2019-05-01T01:59:42.507Z,8.10
2019-05-01T02:02:15.447Z,8.88
2019-05-01T02:04:48.467Z,9.65
2019-05-01T02:07:20.691Z,8.10
2019-05-01T02:09:52.099Z,6.58
2019-05-01T02:12:23.881Z,8.95
2019-05-01T02:14:55.093Z,8.60
2019-05-01T02:17:27.724Z,7.78
2019-05-01T02:19:59.597Z,11.40
2019-05-01T02:22:30.879Z,8.90
2019-05-01T02:25:02.925Z,7.78
2019-05-01T02:27:36.275Z,6.65
2019-05-01T02:30:09.794Z,7.30
2019-05-01T02:32:41.407Z,13.18
2019-05-01T02:35:13.330Z,10.18
2019-05-01T02:37:46.472Z,6.28
2019-05-01T02:40:21.021Z,7.80
2019-05-01T02:42:53.892Z,8.45
2019-05-01T02:45:26.817Z,6.87
2019-05-01T02:48:00.329Z,8.00
2019-05-01T02:50:34.450Z,10.93
2019-05-01T02:53:06.540Z,8.65
2019-05-01T02:55:40.392Z,8.28
2019-05-01T02:58:13.875Z,10.32
2019-05-01T03:00:45.679Z,7.58
2019-05-01T03:03:17.381Z,9.23
2019-05-01T03:05:49.187Z,8.73
2019-05-01T03:08:20.810Z,5.20
2019-05-01T03:10:52.895Z,6.65
2019-05-01T03:13:24.276Z,6.30
2019-05-01T03:15:56.956Z,6.58
2019-05-01T03:18:29.985Z,9.95
2019-05-01T03:21:03.001Z,6.95
2019-05-01T03:23:39.142Z,10.40
2019-05-01T03:26:10.334Z,10.17
2019-05-01T03:28:42.189Z,10.82
2019-05-01T03:31:15.085Z,7.92
2019-05-01T03:33:46.997Z,8.03
2019-05-01T03:38:48.987Z,6.10
2019-05-01T03:41:22.515Z,5.42
2019-05-01T03:43:54.153Z,6.50
2019-05-01T03:46:26.012Z,5.10
2019-05-01T03:48:57.636Z,7.92
2019-05-01T03:51:29.453Z,8.55
2019-05-01T03:54:02.626Z,7.47
2019-05-01T03:56:33.971Z,10.00
2019-05-01T03:59:05.913Z,8.93
2019-05-01T04:01:39.598Z,9.57
2019-05-01T04:04:13.002Z,8.18
2019-05-01T04:06:45.013Z,6.55
2019-05-01T04:09:17.422Z,7.93
2019-05-01T04:11:49.548Z,6.23
2019-05-01T04:14:22.987Z,12.03
2019-05-01T04:16:56.624Z,8.67
2019-05-01T04:19:28.318Z,7.53
2019-05-01T04:22:01.321Z,10.43
2019-05-01T04:24:33.320Z,8.45
2019-05-01T04:27:06.386Z,6.40
2019-05-01T04:29:39.698Z,6.97
2019-05-01T04:32:12.755Z,7.53
2019-05-01T04:34:43.747Z,8.70
2019-05-01T04:37:16.971Z,7.47
2019-05-01T04:39:49.358Z,7.57
2019-05-01T04:42:20.840Z,8.83
2019-05-01T04:44:52.569Z,7.40
2019-05-01T04:47:24.967Z,9.58
2019-05-01T04:49:56.230Z,6.00
2019-05-01T04:52:28.290Z,8.25
2019-05-01T04:54:59.940Z,9.95
2019-05-01T04:57:31.174Z,7.90
2019-05-01T05:00:04.043Z,6.60
2019-05-01T05:02:38.452Z,6.80
2019-05-01T05:05:11.544Z,8.38
2019-05-01T05:07:43.707Z,6.03
2019-05-01T05:10:15.842Z,8.80
2019-05-01T05:12:49.515Z,7.37
2019-05-01T05:15:22.903Z,11.03
2019-05-01T05:17:53.953Z,10.08
2019-05-01T05:20:25.971Z,7.97
2019-05-01T05:22:58.389Z,6.63
2019-05-01T05:25:29.900Z,8.13
2019-05-01T05:28:01.858Z,7.65
2019-05-01T05:30:35.212Z,7.10
2019-05-01T05:33:18.064Z,7.83
2019-05-01T05:35:43.812Z,7.30
2019-05-01T05:38:18.507Z,9.27
2019-05-01T05:40:52.372Z,6.85
2019-05-01T05:43:24.914Z,6.72
2019-05-01T05:45:57.114Z,11.60
2019-05-01T05:48:28.847Z,11.00
2019-05-01T05:51:02.457Z,10.72
2019-05-01T05:53:37.781Z,7.85
2019-05-01T05:56:13.732Z,10.65
2019-05-01T05:58:47.933Z,8.58
2019-05-01T06:01:22.012Z,6.43
2019-05-01T06:03:55.858Z,10.35
2019-05-01T06:06:31.033Z,5.58
2019-05-01T06:09:08.903Z,7.17
2019-05-01T06:11:43.323Z,6.83
2019-05-01T06:14:15.727Z,7.87
2019-05-01T06:16:52.150Z,6.78
2019-05-01T06:19:24.556Z,5.62
2019-05-01T06:21:57.944Z,5.70
2019-05-01T06:24:35.866Z,5.67
2019-05-01T06:27:08.903Z,7.03
2019-05-01T06:29:39.623Z,5.42
2019-05-01T06:32:11.069Z,6.42
2019-05-01T06:34:43.385Z,8.65
2019-05-01T06:37:14.831Z,5.62
2019-05-01T06:39:47.843Z,8.35
2019-05-01T06:42:21.636Z,6.40
2019-05-01T06:44:52.972Z,9.50
2019-05-01T06:47:27.468Z,9.05
2019-05-01T06:50:06.047Z,6.95
2019-05-01T06:52:38.493Z,6.67
2019-05-01T06:55:11.594Z,8.53
2019-05-01T06:57:45.529Z,9.55
2019-05-01T07:00:18.052Z,6.85
2019-05-01T07:02:50.938Z,8.15
2019-05-01T07:05:24.096Z,6.10
2019-05-01T07:07:56.659Z,11.93
2019-05-01T07:10:39.098Z,8.60
2019-05-01T07:13:05.411Z,9.60
2019-05-01T07:15:37.615Z,10.00
2019-05-01T07:18:11.498Z,7.72
2019-05-01T07:20:47.215Z,8.93
2019-05-01T07:23:17.343Z,13.72
2019-05-01T07:25:50.334Z,6.17
2019-05-01T07:28:22.939Z,6.80
2019-05-01T07:30:56.738Z,7.72
2019-05-01T07:33:29.707Z,8.28
2019-05-01T07:36:01.540Z,4.47
2019-05-01T07:38:38.308Z,6.12
2019-05-01T07:41:07.253Z,6.50
2019-05-01T07:43:40.749Z,5.17
2019-05-01T07:46:18.339Z,4.10
2019-05-01T07:48:48.109Z,6.83
2019-05-01T07:51:21.015Z,6.05
2019-05-01T07:53:53.477Z,4.45
2019-05-01T07:56:28.255Z,6.50
2019-05-01T07:58:58.270Z,4.72
2019-05-01T08:01:31.314Z,5.30
2019-05-01T08:04:04.029Z,5.87
2019-05-01T08:06:35.767Z,3.72
2019-05-01T08:09:11.263Z,3.80
2019-05-01T08:11:45.273Z,8.08
2019-05-01T08:14:18.546Z,4.47
2019-05-01T08:16:50.901Z,6.75
2019-05-01T08:19:24.688Z,5.53
2019-05-01T08:22:01.750Z,4.40
2019-05-01T08:24:31.979Z,5.33
2019-05-01T08:27:04.020Z,12.43
2019-05-01T08:29:41.961Z,4.75
2019-05-01T08:32:12.481Z,6.15
2019-05-01T08:34:49.278Z,4.95
2019-05-01T08:37:22.400Z,5.78
2019-05-01T08:39:53.073Z,7.03
2019-05-01T08:42:25.135Z,4.05
2019-05-01T08:44:59.838Z,5.95
2019-05-01T08:47:33.347Z,4.62
2019-05-01T08:50:11.896Z,6.97
2019-05-01T08:52:47.369Z,4.90
2019-05-01T08:55:15.859Z,7.95
2019-05-01T08:57:48.077Z,6.40
2019-05-01T09:00:19.741Z,5.08
2019-05-01T09:02:51.001Z,4.37
2019-05-01T09:05:29.139Z,5.90
2019-05-01T09:07:57.750Z,4.47
2019-05-01T09:10:30.758Z,3.35
2019-05-01T09:13:02.599Z,3.95
2019-05-01T09:15:34.321Z,3.83
2019-05-01T09:18:05.727Z,4.33
2019-05-01T09:23:09.511Z,9.95
2019-05-01T09:25:43.818Z,3.85
2019-05-01T09:28:16.907Z,6.53
2019-05-01T09:30:50.545Z,6.62
2019-05-01T09:33:26.136Z,4.17
2019-05-01T09:36:34.772Z,7.92
2019-05-01T09:39:23.115Z,5.60
2019-05-01T09:49:29.177Z,4.00
2019-05-01T09:52:02.748Z,4.40
2019-05-01T10:17:18.862Z,3.95
2019-05-01T10:22:21.186Z,4.20
2019-05-01T11:37:59.814Z,16.87
2019-05-01T11:40:33.308Z,13.58
2019-05-01T11:43:04.865Z,11.83
2019-05-01T11:45:35.714Z,13.28
2019-05-01T11:48:07.464Z,15.20
2019-05-01T11:50:39.157Z,16.02
2019-05-01T11:53:09.924Z,15.88
2019-05-01T11:55:41.392Z,17.37
2019-05-01T11:58:12.191Z,30.23
2019-05-01T12:00:44.442Z,16.02
2019-05-01T12:03:15.678Z,25.55
2019-05-01T12:05:47.346Z,12.75
2019-05-01T12:08:18.198Z,16.02
2019-05-01T12:10:49.696Z,16.07
2019-05-01T12:13:21.125Z,17.02
2019-05-01T12:15:53.554Z,15.25
2019-05-01T12:18:24.720Z,14.18
2019-05-01T12:20:55.442Z,12.23
2019-05-01T12:23:26.440Z,11.75
2019-05-01T12:25:58.363Z,11.15
2019-05-01T12:28:29.191Z,12.80
2019-05-01T12:31:00.720Z,10.35
2019-05-01T12:33:31.702Z,21.55
2019-05-01T12:36:03.457Z,12.80
2019-05-01T12:38:34.396Z,16.00
2019-05-01T12:41:06.947Z,18.40
2019-05-01T12:43:38.106Z,25.15
2019-05-01T12:46:11.670Z,15.20
2019-05-01T12:48:43.872Z,14.73
2019-05-01T12:51:16.111Z,12.82
2019-05-01T12:53:49.314Z,14.83
2019-05-01T12:56:21.784Z,15.88
2019-05-01T12:58:55.873Z,22.20
2019-05-01T13:01:26.552Z,20.37
2019-05-01T13:03:58.071Z,16.30
2019-05-01T13:06:29.695Z,20.23
2019-05-01T13:09:01.005Z,19.17
2019-05-01T13:11:34.065Z,19.20
2019-05-01T13:14:05.733Z,20.52
2019-05-01T13:16:37.812Z,19.73
2019-05-01T13:19:08.953Z,18.82
2019-05-01T13:21:41.193Z,18.10
2019-05-01T13:24:13.751Z,19.07
2019-05-01T13:26:45.674Z,20.88
2019-05-01T13:29:18.641Z,23.02
2019-05-01T13:31:51.792Z,24.25
2019-05-01T13:34:23.528Z,23.18
2019-05-01T13:37:02.890Z,19.45
2019-05-01T13:39:29.048Z,24.27
2019-05-01T13:42:00.638Z,19.57
2019-05-01T13:44:33.006Z,20.85
2019-05-01T13:47:04.760Z,24.55
2019-05-01T13:49:36.151Z,22.87
2019-05-01T13:52:08.484Z,22.30
2019-05-01T13:54:44.158Z,25.57
2019-05-01T13:57:15.620Z,28.65
2019-05-01T13:59:47.165Z,24.20
2019-05-01T14:02:19.535Z,27.30
2019-05-01T14:04:51.112Z,26.62
2019-05-01T14:07:24.633Z,30.37
2019-05-01T14:09:56.037Z,23.07
2019-05-01T14:12:32.836Z,24.90
2019-05-01T14:15:05.429Z,24.15
2019-05-01T14:17:38.877Z,25.62
2019-05-01T14:20:12.379Z,22.90
2019-05-01T14:22:45.162Z,24.02
2019-05-01T14:25:18.627Z,24.77
2019-05-01T14:27:50.629Z,29.32
2019-05-01T14:30:22.469Z,29.67
2019-05-01T14:32:53.717Z,30.30
2019-05-01T14:35:25.425Z,26.85
2019-05-01T14:37:57.430Z,24.60
2019-05-01T14:40:29.249Z,25.20
2019-05-01T14:43:00.758Z,23.67
2019-05-01T14:45:32.710Z,23.05
2019-05-01T14:48:04.483Z,24.65
2019-05-01T14:50:36.516Z,24.32
2019-05-01T14:53:08.804Z,23.35
2019-05-01T14:55:41.193Z,23.57
2019-05-01T14:58:12.850Z,25.52
2019-05-01T15:00:46.091Z,22.95
2019-05-01T15:03:19.421Z,25.32
2019-05-01T15:05:52.929Z,29.48
2019-05-01T15:08:25.920Z,25.43
2019-05-01T15:10:58.900Z,27.27
2019-05-01T15:13:32.821Z,21.48
2019-05-01T15:16:07.810Z,29.23
2019-05-01T15:18:41.489Z,24.47
2019-05-01T15:21:14.257Z,22.20
2019-05-01T15:23:53.378Z,21.95
2019-05-01T15:26:20.511Z,20.20
2019-05-01T15:28:52.262Z,26.48
2019-05-01T15:31:23.555Z,27.02
2019-05-01T15:33:55.142Z,22.40
2019-05-01T15:36:26.709Z,19.15
2019-05-01T15:38:58.791Z,17.77
2019-05-01T15:41:31.608Z,20.20
2019-05-01T15:44:03.859Z,17.37
2019-05-01T15:46:36.989Z,19.40
2019-05-01T15:49:09.880Z,23.75
2019-05-01T15:51:40.799Z,20.90
2019-05-01T15:54:12.790Z,18.48
2019-05-01T15:56:43.707Z,24.52
2019-05-01T15:59:14.970Z,19.45
2019-05-01T16:01:45.798Z,18.02
2019-05-01T16:04:17.251Z,15.93
2019-05-01T16:06:48.392Z,17.48
2019-05-01T16:09:20.071Z,19.12
2019-05-01T16:11:52.633Z,29.27
2019-05-01T16:14:24.741Z,26.00
2019-05-01T16:16:57.166Z,33.73
2019-05-01T16:19:29.085Z,22.67
2019-05-01T16:22:00.917Z,28.25
2019-05-01T16:24:32.361Z,33.28
2019-05-01T16:27:04.163Z,21.95
2019-05-01T16:29:35.881Z,30.32
2019-05-01T16:32:07.337Z,25.77
2019-05-01T16:34:44.796Z,25.43
2019-05-01T16:37:20.877Z,25.00
2019-05-01T16:43:10.865Z,28.35
2019-05-01T16:45:42.223Z,23.18
2019-05-01T16:48:18.049Z,22.07
2019-05-01T16:50:49.721Z,22.05
2019-05-01T16:53:30.969Z,22.22
2019-05-01T16:56:20.793Z,23.90
2019-05-01T16:58:56.145Z,22.30
2019-05-01T17:01:28.857Z,17.90
2019-05-01T17:04:04.320Z,32.83
2019-05-01T17:06:37.616Z,41.37
2019-05-01T17:09:12.500Z,23.73
2019-05-01T17:11:45.216Z,19.65
2019-05-01T17:14:18.453Z,19.25
2019-05-01T17:16:50.057Z,21.82
2019-05-01T17:19:21.495Z,21.07
2019-05-01T17:21:52.780Z,17.95
2019-05-01T17:24:23.938Z,18.32
2019-05-01T17:26:55.102Z,19.20
2019-05-01T17:29:26.382Z,20.30
2019-05-01T17:31:57.909Z,21.70
2019-05-01T17:34:30.689Z,18.60
2019-05-01T17:37:02.725Z,18.12
2019-05-01T17:39:36.644Z,19.05
2019-05-01T17:42:13.664Z,17.82
2019-05-01T17:44:44.687Z,21.02
2019-05-01T17:47:17.867Z,17.48
2019-05-01T17:49:49.282Z,19.73
2019-05-01T17:52:24.800Z,18.50
2019-05-01T17:54:57.924Z,21.33
2019-05-01T17:57:29.964Z,22.52
2019-05-01T18:00:09.562Z,20.70
2019-05-01T18:02:42.682Z,25.45
2019-05-01T18:05:17.875Z,18.92
2019-05-01T18:07:49.525Z,16.85
2019-05-01T18:10:21.004Z,21.17
2019-05-01T18:12:53.444Z,21.82
2019-05-01T18:15:24.963Z,20.95
2019-05-01T18:17:56.643Z,21.48
2019-05-01T18:20:29.724Z,18.57
2019-05-01T18:23:03.764Z,19.23
2019-05-01T18:25:38.362Z,19.50
2019-05-01T18:28:09.865Z,22.42
2019-05-01T18:30:46.244Z,20.60
2019-05-01T18:33:22.010Z,19.70
2019-05-01T18:35:59.416Z,17.40
2019-05-01T18:38:33.487Z,21.45
2019-05-01T18:41:24.800Z,18.40
2019-05-01T18:43:58.564Z,21.80
2019-05-01T18:46:34.646Z,18.82
2019-05-01T18:49:16.614Z,20.40
2019-05-01T18:51:48.028Z,21.05
2019-05-01T18:54:34.932Z,25.43
2019-05-01T18:57:39.845Z,25.10
2019-05-01T19:00:20.388Z,19.55
2019-05-01T19:02:59.555Z,20.27
2019-05-01T19:05:33.180Z,23.07
2019-05-01T19:08:09.141Z,19.70
2019-05-01T19:11:12.592Z,16.57
2019-05-01T19:13:42.164Z,20.17
2019-05-01T19:16:40.123Z,20.08
2019-05-01T19:19:12.709Z,26.15
2019-05-01T19:21:48.397Z,27.00
2019-05-01T19:24:20.021Z,26.40
2019-05-01T19:26:51.461Z,22.37
2019-05-01T19:29:26.567Z,21.27
2019-05-01T19:32:21.588Z,53.58
2019-05-01T19:35:18.856Z,51.60
2019-05-01T19:38:17.181Z,114.40
2019-05-01T19:41:18.484Z,29.10
2019-05-01T19:43:59.545Z,23.70
2019-05-01T19:46:38.099Z,25.02
2019-05-01T19:49:09.619Z,25.40
2019-05-01T19:51:41.060Z,20.02
2019-05-01T19:54:23.133Z,19.92
2019-05-01T19:56:59.031Z,17.80
2019-05-01T19:59:35.485Z,18.90
2019-05-01T20:02:37.926Z,22.60
2019-05-01T20:05:43.449Z,22.80
2019-05-01T20:08:22.770Z,22.45
2019-05-01T20:10:54.979Z,26.23
2019-05-01T20:13:37.525Z,25.77
2019-05-01T20:16:42.332Z,18.07
2019-05-01T20:19:45.473Z,20.50
2019-05-01T20:22:48.231Z,20.55
2019-05-01T20:25:37.840Z,14.68
2019-05-01T20:28:22.486Z,12.95
2019-05-01T20:30:58.424Z,18.05
2019-05-01T20:33:45.046Z,16.17
2019-05-01T20:36:27.037Z,14.50
2019-05-01T20:39:29.131Z,12.33
2019-05-01T20:42:29.044Z,13.48
2019-05-01T20:45:18.165Z,13.90
2019-05-01T20:48:00.656Z,13.53
2019-05-01T20:50:39.771Z,10.93
2019-05-01T20:53:16.104Z,12.23
2019-05-01T20:55:53.012Z,12.20
2019-05-01T20:58:30.359Z,12.30
2019-05-01T21:01:17.928Z,8.78
2019-05-01T21:03:58.592Z,12.33
2019-05-01T21:06:43.793Z,9.75
2019-05-01T21:09:18.327Z,12.03
2019-05-01T21:12:04.479Z,10.28
2019-05-01T21:14:28.165Z,13.80
2019-05-01T22:12:53.549Z,14.38
2019-05-01T22:15:26.897Z,13.48
2019-05-01T22:18:00.107Z,12.68
2019-05-01T22:20:33.274Z,10.20
2019-05-01T22:23:17.161Z,13.48
2019-05-01T22:26:01.979Z,13.43
2019-05-01T22:28:50.143Z,11.48
2019-05-01T22:31:27.831Z,10.78
2019-05-01T22:34:00.662Z,13.25
2019-05-01T22:36:32.185Z,16.48
2019-05-01T22:39:06.072Z,19.50
2019-05-01T22:41:39.847Z,24.65
2019-05-01T22:44:12.834Z,19.92
2019-05-01T22:46:44.120Z,29.60
2019-05-01T22:49:15.444Z,23.95
2019-05-01T22:51:47.051Z,25.02
2019-05-01T22:54:18.860Z,21.33
2019-05-01T22:56:50.426Z,17.62
2019-05-01T22:59:22.974Z,14.35
2019-05-01T23:01:55.619Z,14.13
2019-05-01T23:04:27.556Z,16.45
2019-05-01T23:06:59.236Z,14.50
2019-05-01T23:09:30.934Z,10.63
2019-05-01T23:12:02.627Z,14.20
2019-05-01T23:14:34.359Z,13.65
2019-05-01T23:17:07.214Z,13.40
2019-05-01T23:19:39.074Z,14.55
2019-05-01T23:22:10.676Z,10.45
2019-05-01T23:24:42.010Z,11.70
2019-05-01T23:27:13.350Z,14.53
2019-05-01T23:29:44.766Z,14.70
2019-05-01T23:32:16.078Z,14.10
2019-05-01T23:34:47.716Z,11.53
2019-05-01T23:37:18.940Z,11.68
2019-05-01T23:39:50.221Z,13.78
2019-05-01T23:42:21.119Z,13.25
2019-05-01T23:44:52.254Z,12.63
2019-05-01T23:47:23.527Z,15.30
2019-05-01T23:49:55.047Z,11.73
2019-05-01T23:52:26.516Z,12.60
2019-05-01T23:54:57.814Z,12.55
2019-05-01T23:57:29.048Z,16.82
